createdAt,value
2024-02-12T00:00:12.738Z,1.88
2024-02-12T00:05:12.245Z,2.30
2024-02-12T00:10:12.534Z,1.60
2024-02-12T00:15:13.986Z,1.95
2024-02-12T00:20:13.390Z,1.50
2024-02-12T00:25:15.129Z,1.67
2024-02-12T00:30:13.850Z,1.58
2024-02-12T00:35:12.104Z,1.80
2024-02-12T00:40:11.197Z,1.45
2024-02-12T00:45:11.100Z,1.60
2024-02-12T00:50:10.577Z,1.60
2024-02-12T00:55:16.591Z,1.40
2024-02-12T01:00:15.862Z,1.65
2024-02-12T01:05:15.315Z,1.87
2024-02-12T01:10:12.721Z,2.15
2024-02-12T01:15:11.355Z,2.03
2024-02-12T01:20:51.723Z,2.53
2024-02-12T01:25:53.701Z,1.83
2024-02-12T01:30:51.454Z,2.20
2024-02-12T01:35:50.259Z,2.40
2024-02-12T01:40:47.651Z,2.10
2024-02-12T01:45:44.995Z,2.30
2024-02-12T01:50:42.396Z,1.75
2024-02-12T01:55:39.784Z,3.22
2024-02-12T02:00:37.417Z,2.25
2024-02-12T02:05:34.954Z,2.08
2024-02-12T02:10:32.568Z,3.45
2024-02-12T02:15:30.126Z,1.98
2024-02-12T02:20:28.419Z,1.70
2024-02-12T02:25:26.029Z,2.97
2024-02-12T02:30:23.504Z,2.08
2024-02-12T02:35:21.007Z,2.50
2024-02-12T02:40:18.515Z,3.55
2024-02-12T02:45:15.954Z,2.38
2024-02-12T02:50:13.589Z,2.60
2024-02-12T02:55:13.176Z,2.65
2024-02-12T03:00:11.741Z,2.08
2024-02-12T03:05:15.995Z,2.13
2024-02-12T03:10:14.098Z,2.58
2024-02-12T03:15:20.594Z,2.85
2024-02-12T03:20:20.527Z,2.40
2024-02-12T03:25:17.923Z,2.78
2024-02-12T03:30:15.379Z,2.35
2024-02-12T03:35:12.693Z,2.47
2024-02-12T03:40:13.589Z,2.60
2024-02-12T03:45:16.935Z,2.35
2024-02-12T03:50:37.304Z,5.80
2024-02-12T03:55:53.459Z,5.88
2024-02-12T04:00:52.185Z,6.30
2024-02-12T04:05:49.532Z,6.68
2024-02-12T04:10:47.342Z,5.68
2024-02-12T04:15:45.503Z,6.70
2024-02-12T04:20:44.631Z,4.30
2024-02-12T04:25:42.180Z,4.80
2024-02-12T04:30:40.538Z,6.10
2024-02-12T04:35:40.089Z,4.80
2024-02-12T04:40:37.517Z,6.53
2024-02-12T04:45:35.336Z,9.80
2024-02-12T04:50:33.038Z,8.70
2024-02-12T04:55:30.926Z,11.13
2024-02-12T05:00:31.370Z,9.93
2024-02-12T05:05:29.147Z,8.93
2024-02-12T05:10:32.025Z,8.90
2024-02-12T05:15:31.892Z,10.13
2024-02-12T05:20:48.250Z,8.13
2024-02-12T05:25:46.007Z,7.82
2024-02-12T05:30:43.437Z,6.78
2024-02-12T05:35:41.870Z,3.88
2024-02-12T05:40:39.523Z,3.55
2024-02-12T05:45:36.980Z,3.75
2024-02-12T05:50:34.743Z,5.38
2024-02-12T05:55:34.676Z,4.45
2024-02-12T06:00:32.287Z,5.65
2024-02-12T06:05:30.271Z,5.95
2024-02-12T06:10:28.111Z,8.10
2024-02-12T06:15:25.556Z,8.13
2024-02-12T06:20:22.860Z,8.55
2024-02-12T06:25:20.926Z,8.48
2024-02-12T06:30:18.320Z,9.15
2024-02-12T06:35:15.936Z,10.00
2024-02-12T06:40:14.455Z,8.80
2024-02-12T06:45:12.625Z,7.32
2024-02-12T06:50:10.405Z,9.30
2024-02-12T06:55:11.507Z,8.75
2024-02-12T07:00:09.388Z,9.38
2024-02-12T07:05:07.121Z,12.50
2024-02-12T07:10:06.153Z,10.07
2024-02-12T07:15:04.167Z,9.80
2024-02-12T07:20:03.688Z,10.30
2024-02-12T07:25:01.308Z,9.45
2024-02-12T07:29:58.916Z,9.77
2024-02-12T07:34:56.255Z,9.30
2024-02-12T07:39:53.865Z,9.30
2024-02-12T07:44:51.517Z,10.00
2024-02-12T07:49:48.998Z,13.82
2024-02-12T07:54:46.337Z,9.77
2024-02-12T07:59:43.730Z,10.82
2024-02-12T08:04:43.528Z,11.18
2024-02-12T08:09:41.780Z,11.40
2024-02-12T08:14:40.304Z,11.35
2024-02-12T08:19:42.120Z,11.27
2024-02-12T08:24:39.375Z,10.38
2024-02-12T08:29:39.888Z,11.48
2024-02-12T08:34:41.806Z,10.02
2024-02-12T08:39:39.189Z,10.77
2024-02-12T08:44:36.794Z,10.73
2024-02-12T08:49:34.694Z,9.80
2024-02-12T08:54:32.325Z,9.80
2024-02-12T08:59:29.787Z,10.05
2024-02-12T09:04:27.189Z,9.18
2024-02-12T09:09:24.621Z,9.43
2024-02-12T09:14:24.033Z,8.52
2024-02-12T09:19:21.727Z,6.93
2024-02-12T09:24:19.906Z,6.45
2024-02-12T09:29:17.722Z,6.03
2024-02-12T09:34:17.080Z,5.18
2024-02-12T09:39:16.654Z,5.50
2024-02-12T09:44:17.721Z,5.27
2024-02-12T09:49:17.087Z,6.10
2024-02-12T09:54:15.157Z,5.53
2024-02-12T09:59:13.827Z,4.25
2024-02-12T10:04:12.056Z,4.18
2024-02-12T10:09:09.852Z,4.07
2024-02-12T10:14:07.340Z,3.95
2024-02-12T10:19:04.800Z,4.45
2024-02-12T10:24:05.369Z,4.75
2024-02-12T10:29:02.754Z,3.88
2024-02-12T10:34:04.038Z,3.60
2024-02-12T10:39:02.279Z,3.63
2024-02-12T10:44:00.474Z,3.22
2024-02-12T10:48:59.717Z,4.10
2024-02-12T10:53:57.260Z,3.10
2024-02-12T10:58:54.641Z,3.22
2024-02-12T11:03:55.011Z,3.13
2024-02-12T11:08:55.729Z,3.08
2024-02-12T11:14:01.091Z,2.75
2024-02-12T11:19:00.712Z,2.70
2024-02-12T11:24:09.345Z,1.98
2024-02-12T11:29:07.246Z,2.63
2024-02-12T11:34:21.066Z,2.03
2024-02-12T11:39:19.249Z,1.90
2024-02-12T11:44:17.064Z,1.80
2024-02-12T11:49:14.521Z,2.03
2024-02-12T11:54:15.292Z,1.92
2024-02-12T11:59:12.906Z,1.83
2024-02-12T12:04:14.638Z,1.65
2024-02-12T12:09:12.827Z,1.70
2024-02-12T12:14:11.930Z,1.77
2024-02-12T12:19:10.919Z,2.00
2024-02-12T12:24:12.770Z,3.25
2024-02-12T12:29:10.164Z,2.42
2024-02-12T12:34:08.336Z,2.60
2024-02-12T12:39:20.396Z,2.90
2024-02-12T12:44:17.681Z,2.45
2024-02-12T12:49:17.629Z,2.30
2024-02-12T12:54:16.138Z,2.00
2024-02-12T12:59:13.973Z,1.70
2024-02-12T13:04:12.832Z,1.52
2024-02-12T13:09:10.988Z,1.77
2024-02-12T13:14:08.795Z,1.80
2024-02-12T13:19:06.645Z,2.42
2024-02-12T13:24:04.028Z,2.30
2024-02-12T13:29:02.199Z,3.17
2024-02-12T13:34:00.328Z,2.35
2024-02-12T13:38:58.357Z,2.40
2024-02-12T13:43:56.010Z,2.58
2024-02-12T13:48:53.955Z,2.28
2024-02-12T13:53:52.297Z,2.00
2024-02-12T13:58:49.661Z,3.08
2024-02-12T14:03:48.515Z,2.50
2024-02-12T14:08:46.161Z,1.98
2024-02-12T14:13:45.063Z,2.83
2024-02-12T14:18:44.086Z,2.50
2024-02-12T14:23:42.325Z,2.67
2024-02-12T14:28:43.735Z,2.72
2024-02-12T14:33:41.954Z,2.97
2024-02-12T14:38:42.545Z,2.28
2024-02-12T14:43:40.754Z,2.55
2024-02-12T14:48:39.987Z,2.53
2024-02-12T14:53:37.453Z,2.27
2024-02-12T14:58:34.991Z,3.78
2024-02-12T15:03:33.798Z,3.35
2024-02-12T15:08:33.086Z,2.90
2024-02-12T15:13:32.341Z,3.00
2024-02-12T15:18:30.347Z,3.35
2024-02-12T15:23:27.593Z,4.95
2024-02-12T15:28:25.521Z,3.15
2024-02-12T15:33:23.055Z,3.35
2024-02-12T15:38:21.720Z,7.07
2024-02-12T15:43:20.317Z,5.22
2024-02-12T15:48:23.157Z,2.55
2024-02-12T15:53:22.775Z,3.33
2024-02-12T15:58:20.094Z,3.28
2024-02-12T16:03:18.898Z,3.35
2024-02-12T16:08:16.113Z,3.45
2024-02-12T16:13:13.801Z,3.42
2024-02-12T16:18:11.890Z,4.20
2024-02-12T16:23:11.025Z,5.95
2024-02-12T16:28:09.299Z,4.17
2024-02-12T16:33:07.123Z,4.05
2024-02-12T16:38:05.083Z,3.80
2024-02-12T16:43:06.210Z,5.93
2024-02-12T16:48:04.253Z,4.15
2024-02-12T16:53:01.739Z,4.28
2024-02-12T16:57:59.209Z,4.80
2024-02-12T17:02:56.688Z,3.83
2024-02-12T17:08:02.426Z,4.88
2024-02-12T17:13:06.645Z,4.35
2024-02-12T17:18:06.546Z,4.32
2024-02-12T17:23:05.683Z,4.47
2024-02-12T17:28:04.818Z,3.60
2024-02-12T17:33:04.285Z,4.78
2024-02-12T17:38:02.077Z,5.75
2024-02-12T17:42:59.519Z,6.40
2024-02-12T17:47:56.993Z,7.25
2024-02-12T17:52:54.526Z,6.10
2024-02-12T17:57:53.304Z,6.35
2024-02-12T18:02:50.937Z,6.95
2024-02-12T18:07:49.374Z,5.60
2024-02-12T18:12:46.859Z,5.60
2024-02-12T18:17:52.255Z,4.35
2024-02-12T18:22:49.878Z,4.85
2024-02-12T18:27:47.229Z,4.78
2024-02-12T18:32:45.969Z,5.32
2024-02-12T18:37:43.656Z,4.53
2024-02-12T18:42:41.055Z,4.80
2024-02-12T18:47:39.119Z,13.30
2024-02-12T18:52:36.425Z,12.07
2024-02-12T18:57:34.277Z,7.70
2024-02-12T19:02:33.465Z,7.40
2024-02-12T19:07:30.901Z,9.18
2024-02-12T19:12:28.501Z,15.07
2024-02-12T19:17:26.671Z,8.10
2024-02-12T19:22:23.988Z,8.90
2024-02-12T19:27:21.437Z,10.48
2024-02-12T19:32:20.006Z,9.55
2024-02-12T19:37:18.312Z,7.75
2024-02-12T19:42:15.840Z,7.00
2024-02-12T19:47:17.444Z,6.38
2024-02-12T19:52:14.794Z,6.25
2024-02-12T19:57:12.216Z,8.40
2024-02-12T20:02:12.106Z,6.68
2024-02-12T20:12:07.376Z,7.35
2024-02-12T20:17:07.434Z,8.18
2024-02-12T20:22:05.169Z,7.88
2024-02-12T20:27:05.938Z,8.88
2024-02-12T20:32:04.051Z,9.10
2024-02-12T20:37:02.862Z,7.45
2024-02-12T20:42:01.777Z,9.45
2024-02-12T20:47:04.209Z,6.82
2024-02-12T20:52:01.776Z,7.80
2024-02-12T20:57:00.519Z,8.70
2024-02-12T21:01:57.910Z,9.25
2024-02-12T21:06:55.361Z,9.40
2024-02-12T21:11:52.898Z,9.68
2024-02-12T21:16:52.547Z,10.20
2024-02-12T21:21:50.584Z,7.88
2024-02-12T21:26:48.546Z,7.30
2024-02-12T21:31:46.121Z,5.30
2024-02-12T21:36:44.769Z,5.57
2024-02-12T21:41:56.427Z,6.10
2024-02-12T21:46:54.557Z,7.20
2024-02-12T21:51:52.567Z,7.00
2024-02-12T21:56:50.174Z,10.40
2024-02-12T22:01:47.924Z,7.90
2024-02-12T22:06:47.719Z,7.65
2024-02-12T22:11:46.667Z,5.93
2024-02-12T22:16:48.030Z,6.97
2024-02-12T22:21:45.943Z,6.57
2024-02-12T22:26:44.023Z,5.53
2024-02-12T22:31:44.954Z,6.13
2024-02-12T22:36:42.570Z,6.88
2024-02-12T22:41:41.186Z,10.15
2024-02-12T22:46:38.968Z,9.10
2024-02-12T22:51:36.306Z,10.90
2024-02-12T22:56:34.017Z,6.28
2024-02-12T23:01:31.708Z,7.93
2024-02-12T23:06:31.055Z,6.88
2024-02-12T23:11:29.404Z,10.52
2024-02-12T23:16:27.715Z,7.80
2024-02-12T23:21:26.089Z,6.50
2024-02-12T23:26:23.690Z,8.77
2024-02-12T23:31:21.073Z,6.80
2024-02-12T23:36:18.473Z,8.68
2024-02-12T23:41:15.804Z,8.02
2024-02-12T23:46:15.160Z,8.63
2024-02-12T23:51:13.341Z,14.27
2024-02-12T23:56:16.917Z,11.82
